sensor_id;sensor_type;location;lat;lon;timestamp;P1;durP1;ratioP1;P2;durP2;ratioP2
21101;SDS011;10709;49.006;12.100;2024-01-16T00:01:55;8.30;;;5.03;;
21101;SDS011;10709;49.006;12.100;2024-01-16T00:04:22;7.83;;;4.70;;
21101;SDS011;10709;49.006;12.100;2024-01-16T00:06:49;10.70;;;4.33;;
21101;SDS011;10709;49.006;12.100;2024-01-16T00:09:16;6.73;;;4.57;;
21101;SDS011;10709;49.006;12.100;2024-01-16T00:11:43;7.13;;;4.70;;
21101;SDS011;10709;49.006;12.100;2024-01-16T00:14:10;8.03;;;4.87;;
21101;SDS011;10709;49.006;12.100;2024-01-16T00:16:43;6.00;;;4.40;;
21101;SDS011;10709;49.006;12.100;2024-01-16T00:19:11;7.50;;;4.50;;
21101;SDS011;10709;49.006;12.100;2024-01-16T00:21:39;7.83;;;4.40;;
21101;SDS011;10709;49.006;12.100;2024-01-16T00:24:07;6.83;;;3.77;;
21101;SDS011;10709;49.006;12.100;2024-01-16T00:26:34;7.07;;;4.10;;
21101;SDS011;10709;49.006;12.100;2024-01-16T00:29:01;7.17;;;4.43;;
21101;SDS011;10709;49.006;12.100;2024-01-16T00:31:28;5.57;;;3.97;;
21101;SDS011;10709;49.006;12.100;2024-01-16T00:33:55;8.97;;;4.00;;
21101;SDS011;10709;49.006;12.100;2024-01-16T00:36:21;7.67;;;4.17;;
21101;SDS011;10709;49.006;12.100;2024-01-16T00:38:49;5.93;;;4.23;;
21101;SDS011;10709;49.006;12.100;2024-01-16T00:41:16;5.77;;;3.50;;
21101;SDS011;10709;49.006;12.100;2024-01-16T00:43:43;5.60;;;3.60;;
21101;SDS011;10709;49.006;12.100;2024-01-16T00:46:10;6.73;;;3.90;;
21101;SDS011;10709;49.006;12.100;2024-01-16T00:48:37;6.80;;;3.60;;
21101;SDS011;10709;49.006;12.100;2024-01-16T00:51:07;4.93;;;3.50;;
21101;SDS011;10709;49.006;12.100;2024-01-16T00:53:39;7.00;;;3.73;;
21101;SDS011;10709;49.006;12.100;2024-01-16T00:56:09;7.10;;;3.37;;
21101;SDS011;10709;49.006;12.100;2024-01-16T00:58:37;7.27;;;3.57;;
21101;SDS011;10709;49.006;12.100;2024-01-16T01:01:04;8.23;;;3.93;;
21101;SDS011;10709;49.006;12.100;2024-01-16T01:03:31;5.97;;;3.50;;
21101;SDS011;10709;49.006;12.100;2024-01-16T01:05:57;5.60;;;3.17;;
21101;SDS011;10709;49.006;12.100;2024-01-16T01:08:26;5.87;;;3.40;;
21101;SDS011;10709;49.006;12.100;2024-01-16T01:10:53;5.63;;;3.00;;
21101;SDS011;10709;49.006;12.100;2024-01-16T01:13:20;6.33;;;3.30;;
21101;SDS011;10709;49.006;12.100;2024-01-16T01:15:46;4.83;;;3.10;;
21101;SDS011;10709;49.006;12.100;2024-01-16T01:18:15;7.50;;;3.30;;
21101;SDS011;10709;49.006;12.100;2024-01-16T01:20:42;5.87;;;3.20;;
21101;SDS011;10709;49.006;12.100;2024-01-16T01:23:09;6.07;;;3.57;;
21101;SDS011;10709;49.006;12.100;2024-01-16T01:25:36;6.67;;;3.70;;
21101;SDS011;10709;49.006;12.100;2024-01-16T01:28:03;8.30;;;3.87;;
21101;SDS011;10709;49.006;12.100;2024-01-16T01:30:29;8.00;;;3.63;;
21101;SDS011;10709;49.006;12.100;2024-01-16T01:32:56;7.07;;;3.67;;
21101;SDS011;10709;49.006;12.100;2024-01-16T01:35:23;5.23;;;3.30;;
21101;SDS011;10709;49.006;12.100;2024-01-16T01:37:50;6.37;;;3.60;;
21101;SDS011;10709;49.006;12.100;2024-01-16T01:40:17;7.87;;;3.80;;
21101;SDS011;10709;49.006;12.100;2024-01-16T01:42:44;5.93;;;3.27;;
21101;SDS011;10709;49.006;12.100;2024-01-16T01:45:11;6.97;;;4.00;;
21101;SDS011;10709;49.006;12.100;2024-01-16T01:47:41;6.10;;;3.57;;
21101;SDS011;10709;49.006;12.100;2024-01-16T01:50:09;5.70;;;3.50;;
21101;SDS011;10709;49.006;12.100;2024-01-16T01:52:37;6.33;;;3.60;;
21101;SDS011;10709;49.006;12.100;2024-01-16T01:55:11;7.67;;;3.77;;
21101;SDS011;10709;49.006;12.100;2024-01-16T01:57:39;8.57;;;3.90;;
21101;SDS011;10709;49.006;12.100;2024-01-16T02:00:10;6.63;;;3.80;;
21101;SDS011;10709;49.006;12.100;2024-01-16T02:02:40;6.30;;;3.93;;
21101;SDS011;10709;49.006;12.100;2024-01-16T02:05:08;6.03;;;3.53;;
21101;SDS011;10709;49.006;12.100;2024-01-16T02:07:35;8.37;;;4.00;;
21101;SDS011;10709;49.006;12.100;2024-01-16T02:10:02;5.43;;;3.40;;
21101;SDS011;10709;49.006;12.100;2024-01-16T02:12:30;7.40;;;3.63;;
21101;SDS011;10709;49.006;12.100;2024-01-16T02:14:56;6.53;;;3.67;;
21101;SDS011;10709;49.006;12.100;2024-01-16T02:17:23;7.90;;;3.80;;
21101;SDS011;10709;49.006;12.100;2024-01-16T02:19:50;8.90;;;3.97;;
21101;SDS011;10709;49.006;12.100;2024-01-16T02:22:23;6.03;;;3.47;;
21101;SDS011;10709;49.006;12.100;2024-01-16T02:24:53;8.13;;;4.60;;
21101;SDS011;10709;49.006;12.100;2024-01-16T02:27:19;8.20;;;3.97;;
21101;SDS011;10709;49.006;12.100;2024-01-16T02:29:46;6.00;;;3.27;;
21101;SDS011;10709;49.006;12.100;2024-01-16T02:32:15;8.87;;;3.57;;
21101;SDS011;10709;49.006;12.100;2024-01-16T02:34:42;6.20;;;3.80;;
21101;SDS011;10709;49.006;12.100;2024-01-16T02:37:10;7.33;;;3.90;;
21101;SDS011;10709;49.006;12.100;2024-01-16T02:39:37;7.67;;;3.87;;
21101;SDS011;10709;49.006;12.100;2024-01-16T02:42:03;8.53;;;4.00;;
21101;SDS011;10709;49.006;12.100;2024-01-16T02:44:30;6.33;;;3.97;;
21101;SDS011;10709;49.006;12.100;2024-01-16T02:46:57;7.77;;;4.00;;
21101;SDS011;10709;49.006;12.100;2024-01-16T02:49:24;6.43;;;4.00;;
21101;SDS011;10709;49.006;12.100;2024-01-16T02:51:52;7.03;;;4.27;;
21101;SDS011;10709;49.006;12.100;2024-01-16T02:54:19;6.47;;;4.00;;
21101;SDS011;10709;49.006;12.100;2024-01-16T02:56:46;7.20;;;3.77;;
21101;SDS011;10709;49.006;12.100;2024-01-16T02:59:13;8.00;;;4.00;;
21101;SDS011;10709;49.006;12.100;2024-01-16T03:01:40;7.33;;;4.20;;
21101;SDS011;10709;49.006;12.100;2024-01-16T03:04:07;10.83;;;4.00;;
21101;SDS011;10709;49.006;12.100;2024-01-16T03:06:33;8.30;;;4.60;;
21101;SDS011;10709;49.006;12.100;2024-01-16T03:09:01;7.93;;;4.13;;
21101;SDS011;10709;49.006;12.100;2024-01-16T03:11:27;6.93;;;4.30;;
21101;SDS011;10709;49.006;12.100;2024-01-16T03:13:58;10.70;;;4.60;;
21101;SDS011;10709;49.006;12.100;2024-01-16T03:16:25;7.60;;;4.53;;
21101;SDS011;10709;49.006;12.100;2024-01-16T03:18:52;8.07;;;4.40;;
21101;SDS011;10709;49.006;12.100;2024-01-16T03:21:18;7.83;;;4.10;;
21101;SDS011;10709;49.006;12.100;2024-01-16T03:23:45;7.00;;;4.40;;
21101;SDS011;10709;49.006;12.100;2024-01-16T03:26:14;8.53;;;3.97;;
21101;SDS011;10709;49.006;12.100;2024-01-16T03:28:41;8.27;;;4.30;;
21101;SDS011;10709;49.006;12.100;2024-01-16T03:31:11;9.87;;;4.83;;
21101;SDS011;10709;49.006;12.100;2024-01-16T03:33:40;6.23;;;4.30;;
21101;SDS011;10709;49.006;12.100;2024-01-16T03:36:09;8.73;;;4.27;;
21101;SDS011;10709;49.006;12.100;2024-01-16T03:38:36;6.20;;;4.03;;
21101;SDS011;10709;49.006;12.100;2024-01-16T03:41:06;8.63;;;4.40;;
21101;SDS011;10709;49.006;12.100;2024-01-16T03:43:34;7.63;;;4.30;;
21101;SDS011;10709;49.006;12.100;2024-01-16T03:46:01;7.50;;;4.77;;
21101;SDS011;10709;49.006;12.100;2024-01-16T03:48:31;7.00;;;4.53;;
21101;SDS011;10709;49.006;12.100;2024-01-16T03:50:57;5.17;;;4.00;;
21101;SDS011;10709;49.006;12.100;2024-01-16T03:53:25;8.07;;;4.40;;
21101;SDS011;10709;49.006;12.100;2024-01-16T03:55:52;9.77;;;4.73;;
21101;SDS011;10709;49.006;12.100;2024-01-16T03:58:18;9.97;;;5.23;;
21101;SDS011;10709;49.006;12.100;2024-01-16T04:00:45;8.10;;;4.50;;
21101;SDS011;10709;49.006;12.100;2024-01-16T04:03:12;7.60;;;4.30;;
21101;SDS011;10709;49.006;12.100;2024-01-16T04:05:39;7.00;;;4.70;;
21101;SDS011;10709;49.006;12.100;2024-01-16T04:08:06;8.00;;;4.97;;
21101;SDS011;10709;49.006;12.100;2024-01-16T04:10:34;6.10;;;4.07;;
21101;SDS011;10709;49.006;12.100;2024-01-16T04:13:03;8.60;;;4.90;;
21101;SDS011;10709;49.006;12.100;2024-01-16T04:15:29;8.97;;;4.70;;
21101;SDS011;10709;49.006;12.100;2024-01-16T04:17:58;7.47;;;4.73;;
21101;SDS011;10709;49.006;12.100;2024-01-16T04:20:26;7.77;;;4.70;;
21101;SDS011;10709;49.006;12.100;2024-01-16T04:22:52;7.73;;;4.43;;
21101;SDS011;10709;49.006;12.100;2024-01-16T04:25:19;8.93;;;4.93;;
21101;SDS011;10709;49.006;12.100;2024-01-16T04:27:45;9.70;;;4.93;;
21101;SDS011;10709;49.006;12.100;2024-01-16T04:30:12;8.50;;;4.70;;
21101;SDS011;10709;49.006;12.100;2024-01-16T04:32:39;7.23;;;4.87;;
21101;SDS011;10709;49.006;12.100;2024-01-16T04:35:06;9.20;;;5.33;;
21101;SDS011;10709;49.006;12.100;2024-01-16T04:37:34;8.40;;;4.53;;
21101;SDS011;10709;49.006;12.100;2024-01-16T04:40:01;7.87;;;4.77;;
21101;SDS011;10709;49.006;12.100;2024-01-16T04:42:28;11.40;;;5.20;;
21101;SDS011;10709;49.006;12.100;2024-01-16T04:44:56;8.17;;;4.80;;
21101;SDS011;10709;49.006;12.100;2024-01-16T04:47:22;8.40;;;5.10;;
21101;SDS011;10709;49.006;12.100;2024-01-16T04:49:49;8.10;;;4.83;;
21101;SDS011;10709;49.006;12.100;2024-01-16T04:52:15;9.60;;;5.00;;
21101;SDS011;10709;49.006;12.100;2024-01-16T04:54:42;9.53;;;5.20;;
21101;SDS011;10709;49.006;12.100;2024-01-16T04:57:14;8.07;;;4.93;;
21101;SDS011;10709;49.006;12.100;2024-01-16T04:59:41;9.53;;;5.43;;
21101;SDS011;10709;49.006;12.100;2024-01-16T05:02:08;8.47;;;4.67;;
21101;SDS011;10709;49.006;12.100;2024-01-16T05:04:36;8.40;;;4.83;;
21101;SDS011;10709;49.006;12.100;2024-01-16T05:07:04;10.03;;;5.20;;
21101;SDS011;10709;49.006;12.100;2024-01-16T05:09:31;9.97;;;4.97;;
21101;SDS011;10709;49.006;12.100;2024-01-16T05:11:57;8.83;;;5.00;;
21101;SDS011;10709;49.006;12.100;2024-01-16T05:14:24;9.63;;;5.10;;
21101;SDS011;10709;49.006;12.100;2024-01-16T05:16:52;9.20;;;5.53;;
21101;SDS011;10709;49.006;12.100;2024-01-16T05:19:19;7.90;;;5.10;;
21101;SDS011;10709;49.006;12.100;2024-01-16T05:21:46;8.77;;;5.03;;
21101;SDS011;10709;49.006;12.100;2024-01-16T05:24:13;8.30;;;4.97;;
21101;SDS011;10709;49.006;12.100;2024-01-16T05:26:39;8.00;;;4.90;;
21101;SDS011;10709;49.006;12.100;2024-01-16T05:29:08;8.63;;;5.13;;
21101;SDS011;10709;49.006;12.100;2024-01-16T05:31:39;7.33;;;4.87;;
21101;SDS011;10709;49.006;12.100;2024-01-16T05:34:08;7.53;;;4.83;;
21101;SDS011;10709;49.006;12.100;2024-01-16T05:36:35;8.27;;;4.80;;
21101;SDS011;10709;49.006;12.100;2024-01-16T05:39:02;8.60;;;4.93;;
21101;SDS011;10709;49.006;12.100;2024-01-16T05:41:33;8.03;;;4.80;;
21101;SDS011;10709;49.006;12.100;2024-01-16T05:44:01;8.03;;;4.97;;
21101;SDS011;10709;49.006;12.100;2024-01-16T05:46:31;8.47;;;4.90;;
21101;SDS011;10709;49.006;12.100;2024-01-16T05:49:00;9.47;;;4.60;;
21101;SDS011;10709;49.006;12.100;2024-01-16T05:51:27;12.23;;;5.20;;
21101;SDS011;10709;49.006;12.100;2024-01-16T05:53:54;9.23;;;4.57;;
21101;SDS011;10709;49.006;12.100;2024-01-16T05:56:21;8.80;;;4.60;;
21101;SDS011;10709;49.006;12.100;2024-01-16T05:58:48;9.03;;;5.00;;
21101;SDS011;10709;49.006;12.100;2024-01-16T06:01:14;9.83;;;4.53;;
21101;SDS011;10709;49.006;12.100;2024-01-16T06:03:44;8.97;;;4.80;;
21101;SDS011;10709;49.006;12.100;2024-01-16T06:06:13;9.23;;;4.93;;
21101;SDS011;10709;49.006;12.100;2024-01-16T06:08:39;9.27;;;5.00;;
21101;SDS011;10709;49.006;12.100;2024-01-16T06:11:06;9.30;;;5.20;;
21101;SDS011;10709;49.006;12.100;2024-01-16T06:13:33;8.20;;;5.23;;
21101;SDS011;10709;49.006;12.100;2024-01-16T06:15:59;9.10;;;5.20;;
21101;SDS011;10709;49.006;12.100;2024-01-16T06:18:26;8.80;;;4.87;;
21101;SDS011;10709;49.006;12.100;2024-01-16T06:20:54;7.40;;;4.53;;
21101;SDS011;10709;49.006;12.100;2024-01-16T06:23:21;9.70;;;4.43;;
21101;SDS011;10709;49.006;12.100;2024-01-16T06:25:47;7.93;;;4.63;;
21101;SDS011;10709;49.006;12.100;2024-01-16T06:28:14;6.93;;;4.20;;
21101;SDS011;10709;49.006;12.100;2024-01-16T06:30:41;7.20;;;4.43;;
21101;SDS011;10709;49.006;12.100;2024-01-16T06:33:08;7.70;;;4.20;;
21101;SDS011;10709;49.006;12.100;2024-01-16T06:35:34;7.97;;;4.27;;
21101;SDS011;10709;49.006;12.100;2024-01-16T06:38:05;6.63;;;4.27;;
21101;SDS011;10709;49.006;12.100;2024-01-16T06:40:33;6.83;;;4.33;;
21101;SDS011;10709;49.006;12.100;2024-01-16T06:43:00;6.23;;;3.83;;
21101;SDS011;10709;49.006;12.100;2024-01-16T06:45:29;8.87;;;4.20;;
21101;SDS011;10709;49.006;12.100;2024-01-16T06:47:58;6.03;;;4.30;;
21101;SDS011;10709;49.006;12.100;2024-01-16T06:50:27;8.20;;;4.40;;
21101;SDS011;10709;49.006;12.100;2024-01-16T06:52:53;8.00;;;4.30;;
21101;SDS011;10709;49.006;12.100;2024-01-16T06:55:20;6.97;;;4.27;;
21101;SDS011;10709;49.006;12.100;2024-01-16T06:57:46;8.70;;;4.27;;
21101;SDS011;10709;49.006;12.100;2024-01-16T07:00:14;8.07;;;4.20;;
21101;SDS011;10709;49.006;12.100;2024-01-16T07:02:41;7.43;;;4.10;;
21101;SDS011;10709;49.006;12.100;2024-01-16T07:05:11;10.07;;;4.80;;
21101;SDS011;10709;49.006;12.100;2024-01-16T07:07:38;7.40;;;4.70;;
21101;SDS011;10709;49.006;12.100;2024-01-16T07:10:06;6.67;;;4.23;;
21101;SDS011;10709;49.006;12.100;2024-01-16T07:12:44;6.97;;;4.13;;
21101;SDS011;10709;49.006;12.100;2024-01-16T07:15:11;7.00;;;4.13;;
21101;SDS011;10709;49.006;12.100;2024-01-16T07:17:38;8.63;;;4.80;;
21101;SDS011;10709;49.006;12.100;2024-01-16T07:20:06;7.87;;;4.70;;
21101;SDS011;10709;49.006;12.100;2024-01-16T07:22:33;6.20;;;4.27;;
21101;SDS011;10709;49.006;12.100;2024-01-16T07:25:03;6.70;;;3.90;;
21101;SDS011;10709;49.006;12.100;2024-01-16T07:27:30;7.20;;;4.33;;
21101;SDS011;10709;49.006;12.100;2024-01-16T07:29:58;7.87;;;4.40;;
21101;SDS011;10709;49.006;12.100;2024-01-16T07:32:24;7.57;;;4.40;;
21101;SDS011;10709;49.006;12.100;2024-01-16T07:34:52;10.20;;;5.10;;
21101;SDS011;10709;49.006;12.100;2024-01-16T07:37:19;8.57;;;4.83;;
21101;SDS011;10709;49.006;12.100;2024-01-16T07:39:46;8.20;;;4.70;;
21101;SDS011;10709;49.006;12.100;2024-01-16T07:42:13;7.87;;;4.13;;
21101;SDS011;10709;49.006;12.100;2024-01-16T07:44:43;6.90;;;4.63;;
21101;SDS011;10709;49.006;12.100;2024-01-16T07:47:12;8.63;;;5.10;;
21101;SDS011;10709;49.006;12.100;2024-01-16T07:49:39;8.53;;;4.87;;
21101;SDS011;10709;49.006;12.100;2024-01-16T07:52:09;9.60;;;4.40;;
21101;SDS011;10709;49.006;12.100;2024-01-16T07:54:38;7.93;;;4.10;;
21101;SDS011;10709;49.006;12.100;2024-01-16T07:57:07;8.03;;;4.63;;
21101;SDS011;10709;49.006;12.100;2024-01-16T07:59:33;8.83;;;4.43;;
21101;SDS011;10709;49.006;12.100;2024-01-16T08:02:00;10.83;;;4.70;;
21101;SDS011;10709;49.006;12.100;2024-01-16T08:04:26;9.20;;;4.27;;
21101;SDS011;10709;49.006;12.100;2024-01-16T08:06:53;8.40;;;4.77;;
21101;SDS011;10709;49.006;12.100;2024-01-16T08:09:22;7.40;;;4.40;;
21101;SDS011;10709;49.006;12.100;2024-01-16T08:11:49;7.10;;;4.43;;
21101;SDS011;10709;49.006;12.100;2024-01-16T08:14:16;6.73;;;4.20;;
21101;SDS011;10709;49.006;12.100;2024-01-16T08:16:42;8.53;;;4.60;;
21101;SDS011;10709;49.006;12.100;2024-01-16T08:19:10;7.90;;;4.40;;
21101;SDS011;10709;49.006;12.100;2024-01-16T08:21:37;6.77;;;4.10;;
21101;SDS011;10709;49.006;12.100;2024-01-16T08:24:04;9.03;;;4.27;;
21101;SDS011;10709;49.006;12.100;2024-01-16T08:26:31;8.20;;;4.80;;
21101;SDS011;10709;49.006;12.100;2024-01-16T08:28:58;8.33;;;4.10;;
21101;SDS011;10709;49.006;12.100;2024-01-16T08:31:24;5.97;;;4.17;;
21101;SDS011;10709;49.006;12.100;2024-01-16T08:33:51;7.93;;;4.30;;
21101;SDS011;10709;49.006;12.100;2024-01-16T08:36:19;9.37;;;4.60;;
21101;SDS011;10709;49.006;12.100;2024-01-16T08:38:46;6.83;;;4.30;;
21101;SDS011;10709;49.006;12.100;2024-01-16T08:41:14;7.17;;;4.23;;
21101;SDS011;10709;49.006;12.100;2024-01-16T08:43:41;7.47;;;4.63;;
21101;SDS011;10709;49.006;12.100;2024-01-16T08:46:10;7.30;;;3.93;;
21101;SDS011;10709;49.006;12.100;2024-01-16T08:48:37;7.47;;;4.50;;
21101;SDS011;10709;49.006;12.100;2024-01-16T08:51:07;7.63;;;4.57;;
21101;SDS011;10709;49.006;12.100;2024-01-16T08:53:38;7.23;;;4.73;;
21101;SDS011;10709;49.006;12.100;2024-01-16T08:56:05;7.87;;;4.03;;
21101;SDS011;10709;49.006;12.100;2024-01-16T08:58:35;7.30;;;4.20;;
21101;SDS011;10709;49.006;12.100;2024-01-16T09:01:04;7.83;;;4.47;;
21101;SDS011;10709;49.006;12.100;2024-01-16T09:03:31;9.20;;;4.50;;
21101;SDS011;10709;49.006;12.100;2024-01-16T09:05:58;7.87;;;4.17;;
21101;SDS011;10709;49.006;12.100;2024-01-16T09:08:26;8.97;;;4.50;;
21101;SDS011;10709;49.006;12.100;2024-01-16T09:10:53;9.73;;;4.50;;
21101;SDS011;10709;49.006;12.100;2024-01-16T09:13:20;8.40;;;4.30;;
21101;SDS011;10709;49.006;12.100;2024-01-16T09:15:47;8.27;;;4.20;;
21101;SDS011;10709;49.006;12.100;2024-01-16T09:18:16;8.40;;;3.90;;
21101;SDS011;10709;49.006;12.100;2024-01-16T09:20:43;5.90;;;3.80;;
21101;SDS011;10709;49.006;12.100;2024-01-16T09:23:10;7.70;;;4.50;;
21101;SDS011;10709;49.006;12.100;2024-01-16T09:25:37;6.90;;;3.93;;
21101;SDS011;10709;49.006;12.100;2024-01-16T09:28:04;8.43;;;4.27;;
21101;SDS011;10709;49.006;12.100;2024-01-16T09:30:30;8.87;;;4.57;;
21101;SDS011;10709;49.006;12.100;2024-01-16T09:32:57;7.47;;;4.60;;
21101;SDS011;10709;49.006;12.100;2024-01-16T09:35:23;7.70;;;4.30;;
21101;SDS011;10709;49.006;12.100;2024-01-16T09:37:51;6.77;;;4.30;;
21101;SDS011;10709;49.006;12.100;2024-01-16T09:40:18;7.63;;;4.23;;
21101;SDS011;10709;49.006;12.100;2024-01-16T09:42:44;9.67;;;3.97;;
21101;SDS011;10709;49.006;12.100;2024-01-16T09:45:12;9.20;;;4.17;;
21101;SDS011;10709;49.006;12.100;2024-01-16T09:47:49;8.83;;;4.53;;
21101;SDS011;10709;49.006;12.100;2024-01-16T09:50:18;7.13;;;4.07;;
21101;SDS011;10709;49.006;12.100;2024-01-16T09:52:46;9.67;;;4.23;;
21101;SDS011;10709;49.006;12.100;2024-01-16T09:55:15;7.87;;;4.17;;
21101;SDS011;10709;49.006;12.100;2024-01-16T09:57:43;6.40;;;4.17;;
21101;SDS011;10709;49.006;12.100;2024-01-16T10:00:13;8.03;;;3.80;;
21101;SDS011;10709;49.006;12.100;2024-01-16T10:02:40;8.30;;;4.27;;
21101;SDS011;10709;49.006;12.100;2024-01-16T10:05:10;9.13;;;4.20;;
21101;SDS011;10709;49.006;12.100;2024-01-16T10:07:37;9.43;;;3.87;;
21101;SDS011;10709;49.006;12.100;2024-01-16T10:10:06;9.30;;;4.10;;
21101;SDS011;10709;49.006;12.100;2024-01-16T10:12:33;7.00;;;4.10;;
21101;SDS011;10709;49.006;12.100;2024-01-16T10:15:00;7.97;;;4.00;;
21101;SDS011;10709;49.006;12.100;2024-01-16T10:17:37;7.30;;;3.90;;
21101;SDS011;10709;49.006;12.100;2024-01-16T10:20:04;8.57;;;3.87;;
21101;SDS011;10709;49.006;12.100;2024-01-16T10:22:31;9.20;;;4.10;;
21101;SDS011;10709;49.006;12.100;2024-01-16T10:25:09;6.63;;;4.07;;
21101;SDS011;10709;49.006;12.100;2024-01-16T10:27:39;8.63;;;4.27;;
21101;SDS011;10709;49.006;12.100;2024-01-16T10:30:06;8.67;;;4.00;;
21101;SDS011;10709;49.006;12.100;2024-01-16T10:32:34;7.10;;;3.77;;
21101;SDS011;10709;49.006;12.100;2024-01-16T10:35:12;7.50;;;4.10;;
21101;SDS011;10709;49.006;12.100;2024-01-16T10:37:46;8.00;;;4.20;;
21101;SDS011;10709;49.006;12.100;2024-01-16T10:40:14;8.03;;;4.63;;
21101;SDS011;10709;49.006;12.100;2024-01-16T10:42:59;7.70;;;4.20;;
21101;SDS011;10709;49.006;12.100;2024-01-16T10:45:27;7.30;;;4.57;;
21101;SDS011;10709;49.006;12.100;2024-01-16T10:50:35;8.47;;;4.27;;
21101;SDS011;10709;49.006;12.100;2024-01-16T10:53:04;7.67;;;4.17;;
21101;SDS011;10709;49.006;12.100;2024-01-16T10:55:35;7.87;;;4.03;;
21101;SDS011;10709;49.006;12.100;2024-01-16T10:58:09;15.47;;;4.73;;
21101;SDS011;10709;49.006;12.100;2024-01-16T11:00:39;7.33;;;4.30;;
21101;SDS011;10709;49.006;12.100;2024-01-16T11:03:09;10.10;;;4.17;;
21101;SDS011;10709;49.006;12.100;2024-01-16T11:05:47;8.17;;;4.30;;
21101;SDS011;10709;49.006;12.100;2024-01-16T11:08:14;8.43;;;4.70;;
21101;SDS011;10709;49.006;12.100;2024-01-16T11:10:43;6.90;;;4.40;;
21101;SDS011;10709;49.006;12.100;2024-01-16T11:13:10;10.13;;;4.90;;
21101;SDS011;10709;49.006;12.100;2024-01-16T11:15:39;9.13;;;4.50;;
21101;SDS011;10709;49.006;12.100;2024-01-16T11:18:11;6.77;;;4.30;;
21101;SDS011;10709;49.006;12.100;2024-01-16T11:20:40;7.30;;;4.40;;
21101;SDS011;10709;49.006;12.100;2024-01-16T11:23:29;9.17;;;4.53;;
21101;SDS011;10709;49.006;12.100;2024-01-16T11:25:56;7.57;;;3.80;;
21101;SDS011;10709;49.006;12.100;2024-01-16T11:28:26;5.90;;;3.50;;
21101;SDS011;10709;49.006;12.100;2024-01-16T11:30:58;6.77;;;4.10;;
21101;SDS011;10709;49.006;12.100;2024-01-16T11:33:54;7.20;;;4.13;;
21101;SDS011;10709;49.006;12.100;2024-01-16T11:39:19;7.67;;;4.60;;
21101;SDS011;10709;49.006;12.100;2024-01-16T11:41:51;10.50;;;4.23;;
21101;SDS011;10709;49.006;12.100;2024-01-16T11:47:18;10.20;;;4.27;;
21101;SDS011;10709;49.006;12.100;2024-01-16T11:50:07;6.63;;;3.83;;
21101;SDS011;10709;49.006;12.100;2024-01-16T11:57:58;7.00;;;3.87;;
21101;SDS011;10709;49.006;12.100;2024-01-16T12:00:33;9.20;;;4.40;;
21101;SDS011;10709;49.006;12.100;2024-01-16T12:03:02;8.27;;;4.23;;
21101;SDS011;10709;49.006;12.100;2024-01-16T12:05:34;8.27;;;4.47;;
21101;SDS011;10709;49.006;12.100;2024-01-16T12:08:01;8.77;;;4.30;;
21101;SDS011;10709;49.006;12.100;2024-01-16T12:10:29;9.23;;;4.30;;
21101;SDS011;10709;49.006;12.100;2024-01-16T12:12:58;5.27;;;3.40;;
21101;SDS011;10709;49.006;12.100;2024-01-16T12:15:30;7.43;;;3.40;;
21101;SDS011;10709;49.006;12.100;2024-01-16T12:17:58;5.53;;;3.40;;
21101;SDS011;10709;49.006;12.100;2024-01-16T12:20:29;8.17;;;4.10;;
21101;SDS011;10709;49.006;12.100;2024-01-16T12:22:58;7.67;;;3.90;;
21101;SDS011;10709;49.006;12.100;2024-01-16T12:25:30;7.73;;;4.00;;
21101;SDS011;10709;49.006;12.100;2024-01-16T12:28:19;7.77;;;4.20;;
21101;SDS011;10709;49.006;12.100;2024-01-16T12:30:50;7.90;;;4.50;;
21101;SDS011;10709;49.006;12.100;2024-01-16T12:33:21;7.13;;;4.20;;
21101;SDS011;10709;49.006;12.100;2024-01-16T12:36:00;7.97;;;4.03;;
21101;SDS011;10709;49.006;12.100;2024-01-16T12:38:29;7.03;;;4.03;;
21101;SDS011;10709;49.006;12.100;2024-01-16T12:40:57;8.50;;;3.77;;
21101;SDS011;10709;49.006;12.100;2024-01-16T12:43:27;8.23;;;4.13;;
21101;SDS011;10709;49.006;12.100;2024-01-16T12:45:56;9.63;;;4.73;;
21101;SDS011;10709;49.006;12.100;2024-01-16T12:48:24;7.60;;;4.23;;
21101;SDS011;10709;49.006;12.100;2024-01-16T12:50:59;8.57;;;3.83;;
21101;SDS011;10709;49.006;12.100;2024-01-16T12:53:29;7.03;;;3.77;;
21101;SDS011;10709;49.006;12.100;2024-01-16T12:56:00;6.77;;;4.23;;
21101;SDS011;10709;49.006;12.100;2024-01-16T12:58:33;7.70;;;4.30;;
21101;SDS011;10709;49.006;12.100;2024-01-16T13:01:20;11.27;;;4.77;;
21101;SDS011;10709;49.006;12.100;2024-01-16T13:04:05;8.63;;;4.50;;
21101;SDS011;10709;49.006;12.100;2024-01-16T13:06:33;9.03;;;4.40;;
21101;SDS011;10709;49.006;12.100;2024-01-16T13:09:04;12.93;;;4.83;;
21101;SDS011;10709;49.006;12.100;2024-01-16T13:11:54;9.57;;;4.73;;
21101;SDS011;10709;49.006;12.100;2024-01-16T13:14:25;8.57;;;4.60;;
21101;SDS011;10709;49.006;12.100;2024-01-16T13:16:52;8.10;;;4.13;;
21101;SDS011;10709;49.006;12.100;2024-01-16T13:19:25;8.33;;;4.17;;
21101;SDS011;10709;49.006;12.100;2024-01-16T13:21:52;9.57;;;4.83;;
21101;SDS011;10709;49.006;12.100;2024-01-16T13:24:20;9.03;;;4.50;;
21101;SDS011;10709;49.006;12.100;2024-01-16T13:26:50;7.00;;;4.30;;
21101;SDS011;10709;49.006;12.100;2024-01-16T13:29:17;11.40;;;4.97;;
21101;SDS011;10709;49.006;12.100;2024-01-16T13:31:44;9.63;;;4.80;;
21101;SDS011;10709;49.006;12.100;2024-01-16T13:34:11;7.60;;;4.27;;
21101;SDS011;10709;49.006;12.100;2024-01-16T13:36:38;11.77;;;4.47;;
21101;SDS011;10709;49.006;12.100;2024-01-16T13:39:25;8.77;;;4.37;;
21101;SDS011;10709;49.006;12.100;2024-01-16T13:41:53;8.83;;;4.17;;
21101;SDS011;10709;49.006;12.100;2024-01-16T13:44:20;11.70;;;4.53;;
21101;SDS011;10709;49.006;12.100;2024-01-16T13:46:47;9.20;;;4.57;;
21101;SDS011;10709;49.006;12.100;2024-01-16T13:49:30;12.93;;;4.80;;
21101;SDS011;10709;49.006;12.100;2024-01-16T13:51:57;17.00;;;4.60;;
21101;SDS011;10709;49.006;12.100;2024-01-16T13:54:24;11.43;;;4.30;;
21101;SDS011;10709;49.006;12.100;2024-01-16T13:56:52;9.17;;;4.30;;
21101;SDS011;10709;49.006;12.100;2024-01-16T13:59:32;8.70;;;4.17;;
21101;SDS011;10709;49.006;12.100;2024-01-16T14:01:59;12.37;;;5.00;;
21101;SDS011;10709;49.006;12.100;2024-01-16T14:04:26;13.07;;;4.43;;
21101;SDS011;10709;49.006;12.100;2024-01-16T14:06:55;10.00;;;4.67;;
21101;SDS011;10709;49.006;12.100;2024-01-16T14:09:38;8.93;;;3.90;;
21101;SDS011;10709;49.006;12.100;2024-01-16T14:12:11;8.67;;;3.77;;
21101;SDS011;10709;49.006;12.100;2024-01-16T14:14:40;8.50;;;3.93;;
21101;SDS011;10709;49.006;12.100;2024-01-16T14:17:10;11.07;;;4.20;;
21101;SDS011;10709;49.006;12.100;2024-01-16T14:19:38;10.37;;;4.20;;
21101;SDS011;10709;49.006;12.100;2024-01-16T14:22:05;8.67;;;4.13;;
21101;SDS011;10709;49.006;12.100;2024-01-16T14:24:33;8.33;;;4.17;;
21101;SDS011;10709;49.006;12.100;2024-01-16T14:27:00;11.10;;;4.57;;
21101;SDS011;10709;49.006;12.100;2024-01-16T14:29:28;7.50;;;4.23;;
21101;SDS011;10709;49.006;12.100;2024-01-16T14:31:55;9.23;;;4.47;;
21101;SDS011;10709;49.006;12.100;2024-01-16T14:34:23;8.10;;;4.23;;
21101;SDS011;10709;49.006;12.100;2024-01-16T14:36:52;8.60;;;4.30;;
21101;SDS011;10709;49.006;12.100;2024-01-16T14:39:20;9.87;;;4.13;;
21101;SDS011;10709;49.006;12.100;2024-01-16T14:41:52;10.07;;;3.80;;
21101;SDS011;10709;49.006;12.100;2024-01-16T14:44:19;9.07;;;4.30;;
21101;SDS011;10709;49.006;12.100;2024-01-16T14:46:45;9.50;;;4.00;;
21101;SDS011;10709;49.006;12.100;2024-01-16T14:49:16;9.07;;;4.17;;
21101;SDS011;10709;49.006;12.100;2024-01-16T14:51:42;12.20;;;3.93;;
21101;SDS011;10709;49.006;12.100;2024-01-16T14:54:09;10.10;;;4.13;;
21101;SDS011;10709;49.006;12.100;2024-01-16T14:56:39;7.57;;;4.00;;